Time;durP1;ratioP1;P1;durP2;ratioP2;P2;SDS_P1;SDS_P2;PMS_P1;PMS_P2;Temp;Humidity;BMP_temperature;BMP_pressure;BME280_temperature;BME280_humidity;BME280_pressure;Samples;Min_cycle;Max_cycle;Signal;HPM_P1;HPM_P2
2022/07/27 00:02:00;;;;;;;4.63;2.40;;;;;;;;;;4954223;28;21018;-51
2022/07/27 00:04:27;;;;;;;3.60;2.67;;;;;;;;;;4944643;28;20850;-52
2022/07/27 00:06:58;;;;;;;3.20;2.80;;;;;;;;;;4930477;28;20798;-53
2022/07/27 00:09:24;;;;;;;5.77;2.80;;;;;;;;;;4942630;28;20451;-52
2022/07/27 00:11:56;;;;;;;5.60;3.37;;;;;;;;;;4941147;28;20497;-52
2022/07/27 00:14:24;;;;;;;3.30;2.43;;;;;;;;;;4943365;28;20445;-52
2022/07/27 00:17:12;;;;;;;2.93;2.60;;;;;;;;;;4932177;28;20446;-53
2022/07/27 00:19:47;;;;;;;3.93;2.63;;;;;;;;;;4945693;28;20447;-53
2022/07/27 00:22:14;;;;;;;3.77;3.37;;;;;;;;;;4931898;28;20631;-51
2022/07/27 00:24:41;;;;;;;3.53;2.93;;;;;;;;;;4938622;28;20479;-52
2022/07/27 00:27:07;;;;;;;3.40;2.70;;;;;;;;;;4927738;28;20459;-52
2022/07/27 00:29:34;;;;;;;3.37;2.53;;;;;;;;;;4948061;28;20439;-52
2022/07/27 00:32:00;;;;;;;2.87;2.43;;;;;;;;;;4942208;28;20889;-53
2022/07/27 00:34:28;;;;;;;4.87;3.20;;;;;;;;;;4927710;28;20685;-52
2022/07/27 00:36:59;;;;;;;3.80;3.00;;;;;;;;;;4925869;28;20717;-52
2022/07/27 00:39:28;;;;;;;4.30;3.73;;;;;;;;;;4948918;28;20506;-51
2022/07/27 00:41:54;;;;;;;3.47;2.87;;;;;;;;;;4962235;28;20439;-55
2022/07/27 00:44:26;;;;;;;2.80;2.40;;;;;;;;;;4951355;28;20958;-51
2022/07/27 00:46:53;;;;;;;4.07;3.07;;;;;;;;;;4943783;28;20443;-51
2022/07/27 00:49:19;;;;;;;3.77;2.90;;;;;;;;;;4948615;28;20906;-51
2022/07/27 00:52:11;;;;;;;3.13;2.63;;;;;;;;;;4956021;28;20984;-51
2022/07/27 00:54:46;;;;;;;3.37;2.60;;;;;;;;;;4938645;28;20448;-54
2022/07/27 00:57:13;;;;;;;4.90;2.60;;;;;;;;;;4943186;28;20438;-53
2022/07/27 00:59:39;;;;;;;6.63;3.17;;;;;;;;;;4950415;28;20936;-52
2022/07/27 01:02:05;;;;;;;3.83;2.90;;;;;;;;;;4928084;28;20548;-53
2022/07/27 01:04:31;;;;;;;3.70;3.00;;;;;;;;;;4949300;28;20859;-51
2022/07/27 01:07:01;;;;;;;3.03;2.73;;;;;;;;;;4948288;28;20852;-51
2022/07/27 01:12:19;;;;;;;3.27;2.97;;;;;;;;;;4940961;28;20449;-53
2022/07/27 01:14:46;;;;;;;4.53;3.03;;;;;;;;;;4970642;28;20574;-51
2022/07/27 01:17:12;;;;;;;4.07;3.60;;;;;;;;;;4943862;28;20434;-52
2022/07/27 01:19:39;;;;;;;4.17;3.30;;;;;;;;;;4947538;28;21069;-52
2022/07/27 01:22:08;;;;;;;3.60;3.30;;;;;;;;;;4922440;28;20454;-53
2022/07/27 01:24:36;;;;;;;4.47;3.97;;;;;;;;;;4939276;28;20474;-51
2022/07/27 01:27:04;;;;;;;3.40;3.10;;;;;;;;;;4946110;28;20443;-50
2022/07/27 01:29:40;;;;;;;3.20;2.90;;;;;;;;;;4949057;28;20457;-52
2022/07/27 01:32:08;;;;;;;3.63;2.73;;;;;;;;;;4954863;28;20434;-52
2022/07/27 01:34:37;;;;;;;4.13;2.93;;;;;;;;;;4949107;28;20461;-51
2022/07/27 01:37:05;;;;;;;2.70;2.50;;;;;;;;;;4925939;28;20793;-52
2022/07/27 01:39:31;;;;;;;5.87;2.90;;;;;;;;;;4945038;28;20454;-51
2022/07/27 01:41:58;;;;;;;4.03;2.97;;;;;;;;;;4927956;28;20442;-52
2022/07/27 01:44:25;;;;;;;3.93;2.93;;;;;;;;;;4950076;28;20490;-58
2022/07/27 01:46:59;;;;;;;5.07;3.20;;;;;;;;;;4923531;28;20466;-52
2022/07/27 01:49:25;;;;;;;4.17;3.17;;;;;;;;;;4925398;28;20972;-52
2022/07/27 01:51:52;;;;;;;5.37;3.33;;;;;;;;;;4946079;28;20960;-51
2022/07/27 01:54:46;;;;;;;4.70;3.07;;;;;;;;;;4934280;28;20439;-52
2022/07/27 01:57:16;;;;;;;3.80;2.70;;;;;;;;;;4944155;28;21758;-52
2022/07/27 01:59:47;;;;;;;2.97;2.70;;;;;;;;;;4949943;28;20754;-53
2022/07/27 02:02:14;;;;;;;4.67;3.13;;;;;;;;;;4947768;28;20452;-53
2022/07/27 02:04:53;;;;;;;3.97;3.27;;;;;;;;;;4945419;28;20478;-53
2022/07/27 02:07:21;;;;;;;6.63;4.73;;;;;;;;;;4949403;28;20492;-52
2022/07/27 02:09:52;;;;;;;4.10;3.10;;;;;;;;;;4931867;28;20447;-52
2022/07/27 02:12:36;;;;;;;4.20;2.93;;;;;;;;;;4949692;28;21002;-52
2022/07/27 02:15:33;;;;;;;3.97;3.10;;;;;;;;;;4940733;28;20618;-53
2022/07/27 02:18:01;;;;;;;6.50;3.83;;;;;;;;;;4940934;28;20545;-51
2022/07/27 02:20:29;;;;;;;6.57;3.50;;;;;;;;;;4931217;28;20442;-52
2022/07/27 02:22:56;;;;;;;8.50;3.10;;;;;;;;;;4950983;28;20522;-52
2022/07/27 02:25:22;;;;;;;4.90;3.67;;;;;;;;;;4916969;28;21505;-52
2022/07/27 02:27:48;;;;;;;2.73;2.53;;;;;;;;;;4949306;28;20716;-53
2022/07/27 02:30:14;;;;;;;3.20;2.90;;;;;;;;;;4943081;28;20501;-51
2022/07/27 02:32:42;;;;;;;3.50;2.83;;;;;;;;;;4949457;28;20657;-52
2022/07/27 02:35:13;;;;;;;3.80;3.50;;;;;;;;;;4949418;28;22427;-53
2022/07/27 02:37:41;;;;;;;4.17;2.90;;;;;;;;;;4948076;28;20480;-52
2022/07/27 02:40:07;;;;;;;3.80;3.40;;;;;;;;;;4934364;28;20446;-52
2022/07/27 02:42:33;;;;;;;5.37;3.27;;;;;;;;;;4945492;28;20502;-53
2022/07/27 02:44:59;;;;;;;4.97;3.17;;;;;;;;;;4936040;28;20474;-52
2022/07/27 02:47:25;;;;;;;6.70;2.97;;;;;;;;;;4945612;28;20209;-53
2022/07/27 02:49:51;;;;;;;5.97;3.20;;;;;;;;;;4943336;28;20470;-51
2022/07/27 02:52:17;;;;;;;5.60;2.80;;;;;;;;;;4948034;28;20442;-51
2022/07/27 02:55:18;;;;;;;6.53;3.50;;;;;;;;;;4941616;28;20517;-52
2022/07/27 02:57:44;;;;;;;4.60;3.30;;;;;;;;;;4961594;28;20543;-52
2022/07/27 03:00:12;;;;;;;3.97;3.57;;;;;;;;;;4946374;28;20935;-52
2022/07/27 03:02:38;;;;;;;6.07;3.70;;;;;;;;;;4946442;28;20443;-51
2022/07/27 03:05:05;;;;;;;4.40;3.27;;;;;;;;;;4940161;28;20486;-52
2022/07/27 03:07:31;;;;;;;4.70;3.30;;;;;;;;;;4943631;28;20449;-52
2022/07/27 03:09:57;;;;;;;3.10;2.80;;;;;;;;;;4940428;28;20623;-52
2022/07/27 03:12:23;;;;;;;6.13;3.87;;;;;;;;;;4942576;28;20446;-53
2022/07/27 03:14:53;;;;;;;3.60;3.07;;;;;;;;;;4934508;28;21096;-52
2022/07/27 03:17:19;;;;;;;3.67;3.10;;;;;;;;;;4945410;28;20431;-53
2022/07/27 03:19:48;;;;;;;5.10;3.50;;;;;;;;;;4942556;28;21492;-51
2022/07/27 03:22:14;;;;;;;5.10;3.30;;;;;;;;;;4955187;28;20426;-52
2022/07/27 03:24:40;;;;;;;5.60;3.77;;;;;;;;;;4939697;28;20656;-52
2022/07/27 03:27:06;;;;;;;4.00;3.53;;;;;;;;;;4949874;28;20860;-53
2022/07/27 03:29:32;;;;;;;3.00;2.80;;;;;;;;;;4930920;28;20447;-52
2022/07/27 03:31:58;;;;;;;4.50;3.80;;;;;;;;;;4950184;28;20431;-52
2022/07/27 03:34:25;;;;;;;4.20;3.20;;;;;;;;;;4938453;28;20352;-52
2022/07/27 03:36:51;;;;;;;6.13;3.30;;;;;;;;;;4959056;28;20461;-51
2022/07/27 03:39:17;;;;;;;9.40;4.60;;;;;;;;;;4943936;28;20435;-52
2022/07/27 03:41:46;;;;;;;4.17;3.77;;;;;;;;;;4943318;28;20609;-51
2022/07/27 03:44:12;;;;;;;4.13;3.83;;;;;;;;;;4925142;28;21238;-52
2022/07/27 03:46:45;;;;;;;4.30;3.90;;;;;;;;;;4948023;28;20438;-52
2022/07/27 03:49:11;;;;;;;4.33;3.73;;;;;;;;;;4930711;28;20435;-52
2022/07/27 03:51:37;;;;;;;4.30;3.30;;;;;;;;;;4933648;28;20463;-52
2022/07/27 03:54:03;;;;;;;3.80;3.50;;;;;;;;;;4925666;28;20960;-51
2022/07/27 03:56:31;;;;;;;4.83;3.83;;;;;;;;;;4946672;28;20485;-53
2022/07/27 03:58:58;;;;;;;4.03;3.63;;;;;;;;;;4919015;28;20585;-52
2022/07/27 04:01:29;;;;;;;4.90;3.63;;;;;;;;;;4937944;28;20451;-53
2022/07/27 04:03:55;;;;;;;3.83;3.50;;;;;;;;;;4946300;28;20529;-52
2022/07/27 04:06:21;;;;;;;4.93;3.00;;;;;;;;;;4958854;28;20455;-53
2022/07/27 04:08:48;;;;;;;3.93;3.60;;;;;;;;;;4947094;28;20445;-52
2022/07/27 04:11:14;;;;;;;6.00;4.27;;;;;;;;;;4928314;28;21021;-53
2022/07/27 04:13:42;;;;;;;5.07;3.37;;;;;;;;;;4924185;28;20456;-53
2022/07/27 04:16:08;;;;;;;5.10;3.73;;;;;;;;;;4947293;28;20458;-53
2022/07/27 04:18:34;;;;;;;6.03;3.80;;;;;;;;;;4946864;28;20434;-52
2022/07/27 04:21:05;;;;;;;5.13;3.37;;;;;;;;;;4945183;28;21003;-52
2022/07/27 04:23:34;;;;;;;4.40;4.03;;;;;;;;;;4927992;28;20806;-52
2022/07/27 04:26:02;;;;;;;5.80;3.90;;;;;;;;;;4930625;28;20442;-52
2022/07/27 04:28:28;;;;;;;4.67;4.27;;;;;;;;;;4940483;28;20859;-52
2022/07/27 04:30:54;;;;;;;4.80;3.70;;;;;;;;;;4945223;28;20443;-52
2022/07/27 04:33:32;;;;;;;3.67;3.37;;;;;;;;;;4921065;28;20518;-52
2022/07/27 04:35:58;;;;;;;5.30;4.20;;;;;;;;;;4941390;28;20431;-51
2022/07/27 04:38:26;;;;;;;6.53;3.70;;;;;;;;;;4958209;28;20431;-52
2022/07/27 04:40:52;;;;;;;4.50;3.77;;;;;;;;;;4945168;28;20462;-53
2022/07/27 04:43:25;;;;;;;6.00;4.20;;;;;;;;;;4927558;28;21076;-52
2022/07/27 04:45:52;;;;;;;5.37;3.70;;;;;;;;;;4947462;28;20537;-53
2022/07/27 04:48:18;;;;;;;4.97;4.50;;;;;;;;;;4936121;28;20716;-50
2022/07/27 04:50:51;;;;;;;4.97;3.67;;;;;;;;;;4946326;28;20450;-54
2022/07/27 04:53:24;;;;;;;4.60;4.20;;;;;;;;;;4943790;28;20442;-53
2022/07/27 04:55:51;;;;;;;4.13;3.73;;;;;;;;;;4950101;28;20450;-51
2022/07/27 04:58:24;;;;;;;8.23;4.70;;;;;;;;;;4949859;28;20581;-52
2022/07/27 05:00:52;;;;;;;5.20;4.20;;;;;;;;;;4949340;28;20944;-52
2022/07/27 05:03:41;;;;;;;4.90;3.90;;;;;;;;;;4933773;28;20955;-55
2022/07/27 05:06:09;;;;;;;5.80;4.07;;;;;;;;;;4937886;28;20460;-52
2022/07/27 05:08:50;;;;;;;8.00;4.80;;;;;;;;;;4956316;28;20443;-53
2022/07/27 05:11:21;;;;;;;4.67;4.27;;;;;;;;;;4938074;28;20435;-53
2022/07/27 05:14:03;;;;;;;4.20;3.80;;;;;;;;;;4935714;28;20479;-53
2022/07/27 05:16:34;;;;;;;4.97;4.43;;;;;;;;;;4939207;28;20443;-51
2022/07/27 05:19:02;;;;;;;7.37;4.77;;;;;;;;;;4927105;29;20462;-52
2022/07/27 05:21:29;;;;;;;4.90;4.17;;;;;;;;;;4957710;28;20450;-53
2022/07/27 05:24:00;;;;;;;4.67;4.23;;;;;;;;;;4921536;28;20494;-56
2022/07/27 05:26:31;;;;;;;4.77;4.17;;;;;;;;;;4935989;28;21015;-51
2022/07/27 05:29:08;;;;;;;6.13;4.00;;;;;;;;;;4955033;28;20737;-51
2022/07/27 05:31:38;;;;;;;4.67;4.17;;;;;;;;;;4948034;28;20984;-52
2022/07/27 05:34:40;;;;;;;4.77;4.27;;;;;;;;;;4954583;28;20570;-54
2022/07/27 05:37:07;;;;;;;4.20;3.80;;;;;;;;;;4951513;28;20515;-51
2022/07/27 05:39:34;;;;;;;4.90;4.30;;;;;;;;;;4951210;28;20481;-54
2022/07/27 05:42:00;;;;;;;6.40;3.87;;;;;;;;;;4949091;28;20444;-53
2022/07/27 05:44:27;;;;;;;4.77;4.10;;;;;;;;;;4947661;28;20834;-52
2022/07/27 05:46:53;;;;;;;8.80;4.30;;;;;;;;;;4946698;28;20453;-52
2022/07/27 05:49:21;;;;;;;4.93;4.43;;;;;;;;;;4947211;28;20553;-53
2022/07/27 05:51:47;;;;;;;6.20;4.23;;;;;;;;;;4950884;28;20457;-52
2022/07/27 05:54:15;;;;;;;5.97;3.80;;;;;;;;;;4927405;28;21901;-57
2022/07/27 05:56:41;;;;;;;5.13;4.53;;;;;;;;;;4953920;28;20796;-53
2022/07/27 05:59:15;;;;;;;4.23;3.83;;;;;;;;;;4952287;28;20426;-53
2022/07/27 06:01:41;;;;;;;4.90;4.50;;;;;;;;;;4949546;28;20941;-51
2022/07/27 06:04:07;;;;;;;8.57;4.63;;;;;;;;;;4928161;28;20583;-52
2022/07/27 06:09:18;;;;;;;6.27;5.10;;;;;;;;;;4914071;28;21903;-51
2022/07/27 06:11:55;;;;;;;4.67;4.23;;;;;;;;;;4959671;28;20427;-52
2022/07/27 06:14:22;;;;;;;5.40;4.90;;;;;;;;;;4921473;28;20715;-50
2022/07/27 06:16:57;;;;;;;8.50;4.00;;;;;;;;;;4947045;28;21070;-51
2022/07/27 06:19:23;;;;;;;8.50;4.20;;;;;;;;;;4950581;28;20948;-51
2022/07/27 06:21:50;;;;;;;5.00;4.53;;;;;;;;;;4931036;28;20455;-52
2022/07/27 06:24:16;;;;;;;4.73;4.33;;;;;;;;;;4945815;28;21627;-51
2022/07/27 06:26:43;;;;;;;6.50;4.23;;;;;;;;;;4928072;28;20533;-51
2022/07/27 06:29:09;;;;;;;5.10;4.47;;;;;;;;;;4950638;28;21090;-53
2022/07/27 06:31:35;;;;;;;6.17;5.60;;;;;;;;;;4942694;28;20482;-52
2022/07/27 06:34:01;;;;;;;9.60;4.57;;;;;;;;;;4950515;28;20518;-51
2022/07/27 06:36:28;;;;;;;6.83;5.20;;;;;;;;;;4943506;28;20191;-52
2022/07/27 06:38:54;;;;;;;4.73;4.20;;;;;;;;;;4943851;28;20466;-51
2022/07/27 06:41:46;;;;;;;6.53;4.63;;;;;;;;;;4924230;28;21143;-52
2022/07/27 06:44:12;;;;;;;4.27;3.90;;;;;;;;;;4944428;28;20518;-53
2022/07/27 06:47:04;;;;;;;4.63;4.23;;;;;;;;;;4943383;28;20809;-53
2022/07/27 06:49:57;;;;;;;5.00;4.50;;;;;;;;;;4952828;28;20439;-53
2022/07/27 06:52:26;;;;;;;6.13;5.27;;;;;;;;;;4929391;28;20470;-53
2022/07/27 06:54:52;;;;;;;6.83;4.93;;;;;;;;;;4944074;28;20537;-52
2022/07/27 06:57:18;;;;;;;7.67;5.10;;;;;;;;;;4921041;28;20469;-53
2022/07/27 06:59:44;;;;;;;5.63;5.03;;;;;;;;;;4928445;28;20451;-52
2022/07/27 07:02:10;;;;;;;5.50;5.00;;;;;;;;;;4926829;28;20451;-50
2022/07/27 07:04:36;;;;;;;6.53;5.93;;;;;;;;;;4935726;28;20474;-51
2022/07/27 07:07:03;;;;;;;4.40;4.00;;;;;;;;;;4944501;28;20434;-53
2022/07/27 07:09:36;;;;;;;5.27;4.67;;;;;;;;;;4942183;28;20490;-53
2022/07/27 07:12:07;;;;;;;5.30;4.80;;;;;;;;;;4953034;28;21042;-51
2022/07/27 07:14:35;;;;;;;5.57;5.07;;;;;;;;;;4913063;28;21031;-51
2022/07/27 07:17:08;;;;;;;5.53;5.03;;;;;;;;;;4947567;28;20443;-51
2022/07/27 07:19:36;;;;;;;5.33;4.83;;;;;;;;;;4922865;28;20461;-53
2022/07/27 07:22:02;;;;;;;7.80;4.73;;;;;;;;;;4944832;28;20431;-51
2022/07/27 07:24:29;;;;;;;5.10;4.60;;;;;;;;;;4920239;28;20706;-52
2022/07/27 07:26:55;;;;;;;4.83;4.43;;;;;;;;;;4942935;28;20451;-53
2022/07/27 07:29:21;;;;;;;5.97;5.47;;;;;;;;;;4920194;28;20506;-52
2022/07/27 07:31:47;;;;;;;5.10;4.33;;;;;;;;;;4945979;28;20450;-51
2022/07/27 07:34:13;;;;;;;5.33;4.93;;;;;;;;;;4915256;28;20439;-53
2022/07/27 07:36:39;;;;;;;4.90;4.50;;;;;;;;;;4948223;28;20454;-52
2022/07/27 07:39:06;;;;;;;7.57;5.33;;;;;;;;;;4924320;28;20190;-51
2022/07/27 07:41:47;;;;;;;4.83;4.43;;;;;;;;;;4944517;28;20449;-51
2022/07/27 07:44:13;;;;;;;6.50;5.43;;;;;;;;;;4943132;28;20485;-51
2022/07/27 07:46:39;;;;;;;5.67;5.07;;;;;;;;;;4947687;28;20435;-53
2022/07/27 07:49:05;;;;;;;6.20;5.00;;;;;;;;;;4912683;28;20446;-53
2022/07/27 07:51:31;;;;;;;5.83;5.23;;;;;;;;;;4945467;28;20443;-53
2022/07/27 07:53:57;;;;;;;7.80;5.00;;;;;;;;;;4930417;28;20501;-51
2022/07/27 07:56:23;;;;;;;9.63;6.37;;;;;;;;;;4938470;28;21320;-52
2022/07/27 07:58:49;;;;;;;5.30;4.80;;;;;;;;;;4914714;28;20442;-51
2022/07/27 08:01:15;;;;;;;6.90;6.10;;;;;;;;;;4941932;28;20448;-52
2022/07/27 08:03:41;;;;;;;5.70;5.10;;;;;;;;;;4935344;28;20206;-52
2022/07/27 08:06:15;;;;;;;5.97;5.33;;;;;;;;;;4914146;28;20455;-51
2022/07/27 08:08:41;;;;;;;5.30;4.87;;;;;;;;;;4945406;28;20434;-52
2022/07/27 08:11:07;;;;;;;5.27;4.87;;;;;;;;;;4930646;28;20434;-52
2022/07/27 08:13:33;;;;;;;4.80;4.40;;;;;;;;;;4939141;28;20939;-52
2022/07/27 08:15:59;;;;;;;5.77;4.87;;;;;;;;;;4932178;28;20317;-52
2022/07/27 08:18:25;;;;;;;6.87;5.20;;;;;;;;;;4941180;28;20540;-55
2022/07/27 08:20:51;;;;;;;5.70;5.20;;;;;;;;;;4902480;28;21846;-52
2022/07/27 08:23:17;;;;;;;5.67;4.80;;;;;;;;;;4938688;28;20462;-50
2022/07/27 08:25:43;;;;;;;5.03;4.57;;;;;;;;;;4921711;28;20218;-50
2022/07/27 08:28:09;;;;;;;5.97;5.37;;;;;;;;;;4947360;28;20450;-50
2022/07/27 08:30:35;;;;;;;5.17;4.77;;;;;;;;;;4928221;28;20434;-53
2022/07/27 08:33:03;;;;;;;5.63;5.13;;;;;;;;;;4943686;28;20446;-50
2022/07/27 08:35:29;;;;;;;6.40;5.30;;;;;;;;;;4926307;28;21535;-51
2022/07/27 08:37:55;;;;;;;5.33;4.83;;;;;;;;;;4943699;28;20557;-52
2022/07/27 08:40:21;;;;;;;5.40;4.90;;;;;;;;;;4918078;28;20450;-52
2022/07/27 08:42:47;;;;;;;5.73;5.17;;;;;;;;;;4944903;28;20450;-53
2022/07/27 08:45:15;;;;;;;6.13;5.53;;;;;;;;;;4916201;28;20526;-52
2022/07/27 08:47:41;;;;;;;7.03;5.53;;;;;;;;;;4940952;28;20439;-52
2022/07/27 08:50:22;;;;;;;8.60;5.27;;;;;;;;;;4942024;28;20438;-53
2022/07/27 08:52:48;;;;;;;5.73;5.00;;;;;;;;;;4942239;28;20822;-51
2022/07/27 08:55:15;;;;;;;4.90;4.50;;;;;;;;;;4905631;28;20536;-52
2022/07/27 08:57:41;;;;;;;6.40;5.27;;;;;;;;;;4926440;28;20451;-53
2022/07/27 09:00:07;;;;;;;9.10;5.40;;;;;;;;;;4947202;28;21002;-52
2022/07/27 09:02:34;;;;;;;5.87;4.73;;;;;;;;;;4928514;28;20191;-52
2022/07/27 09:05:00;;;;;;;5.27;4.77;;;;;;;;;;4937742;28;20999;-51
2022/07/27 09:07:30;;;;;;;7.53;5.67;;;;;;;;;;4912494;28;20458;-51
2022/07/27 09:09:56;;;;;;;8.80;4.90;;;;;;;;;;4940824;28;20431;-52
2022/07/27 09:12:26;;;;;;;7.00;5.17;;;;;;;;;;4933875;28;20955;-52
2022/07/27 09:14:52;;;;;;;6.37;5.67;;;;;;;;;;4948326;28;20497;-53
2022/07/27 09:17:19;;;;;;;9.63;6.03;;;;;;;;;;4919985;28;20530;-53
2022/07/27 09:19:54;;;;;;;8.10;5.30;;;;;;;;;;4949013;28;20267;-53
2022/07/27 09:22:39;;;;;;;5.40;4.90;;;;;;;;;;4936860;28;20434;-52
2022/07/27 09:25:06;;;;;;;6.60;4.73;;;;;;;;;;4947001;28;20478;-53
2022/07/27 09:27:31;;;;;;;5.83;5.20;;;;;;;;;;4907881;28;20439;-52
2022/07/27 09:30:04;;;;;;;10.13;5.50;;;;;;;;;;4952064;28;20814;-51
2022/07/27 09:32:30;;;;;;;7.47;5.60;;;;;;;;;;4916809;28;20728;-51
2022/07/27 09:34:56;;;;;;;6.53;5.83;;;;;;;;;;4949485;28;20454;-53
2022/07/27 09:37:23;;;;;;;7.37;5.27;;;;;;;;;;4918658;28;20471;-52
2022/07/27 09:39:49;;;;;;;7.67;4.70;;;;;;;;;;4947020;28;20179;-52
2022/07/27 09:42:15;;;;;;;5.53;5.03;;;;;;;;;;4946779;28;20454;-56
2022/07/27 09:44:42;;;;;;;6.40;5.80;;;;;;;;;;4946386;28;20738;-52
2022/07/27 09:47:26;;;;;;;7.27;5.60;;;;;;;;;;4936922;28;20449;-53
2022/07/27 09:49:53;;;;;;;5.93;5.43;;;;;;;;;;4952426;28;20426;-52
2022/07/27 09:52:29;;;;;;;6.63;5.70;;;;;;;;;;4938231;28;20451;-52
2022/07/27 09:54:55;;;;;;;5.20;4.70;;;;;;;;;;4948296;28;20449;-52
2022/07/27 09:57:21;;;;;;;5.97;5.10;;;;;;;;;;4926261;28;20458;-50
2022/07/27 09:59:47;;;;;;;5.00;4.50;;;;;;;;;;4923793;28;20439;-53
2022/07/27 10:02:13;;;;;;;5.67;4.20;;;;;;;;;;4945852;28;21060;-51
2022/07/27 10:05:09;;;;;;;5.80;5.20;;;;;;;;;;4941453;28;21338;-53
2022/07/27 10:07:37;;;;;;;5.70;4.37;;;;;;;;;;4933730;28;20593;-51
2022/07/27 10:10:03;;;;;;;5.83;4.70;;;;;;;;;;4904152;28;21212;-50
2022/07/27 10:12:29;;;;;;;4.57;4.17;;;;;;;;;;4937736;28;20549;-51
2022/07/27 10:14:56;;;;;;;6.37;4.83;;;;;;;;;;4929846;28;20440;-54
2022/07/27 10:17:22;;;;;;;5.50;5.00;;;;;;;;;;4944778;28;20439;-51
2022/07/27 10:19:49;;;;;;;6.00;5.40;;;;;;;;;;4925784;28;22057;-52
2022/07/27 10:22:15;;;;;;;6.90;4.83;;;;;;;;;;4953368;28;20509;-51
2022/07/27 10:24:41;;;;;;;6.10;5.50;;;;;;;;;;4931799;28;20492;-51
2022/07/27 10:27:29;;;;;;;6.10;5.27;;;;;;;;;;4945818;28;20441;-53
2022/07/27 10:29:59;;;;;;;5.40;4.90;;;;;;;;;;4941334;28;20966;-52
2022/07/27 10:32:30;;;;;;;8.17;4.87;;;;;;;;;;4965586;28;21138;-52
2022/07/27 10:35:02;;;;;;;5.03;4.50;;;;;;;;;;4940883;28;20812;-51
2022/07/27 10:37:32;;;;;;;8.17;5.43;;;;;;;;;;4943441;28;20558;-51
2022/07/27 10:42:44;;;;;;;4.43;4.03;;;;;;;;;;4935000;28;21012;-51
2022/07/27 10:45:11;;;;;;;5.43;4.30;;;;;;;;;;4948208;28;20481;-51
2022/07/27 10:47:42;;;;;;;6.23;4.30;;;;;;;;;;4934085;28;20529;-51
2022/07/27 10:50:33;;;;;;;4.73;4.20;;;;;;;;;;4949228;28;20442;-51
2022/07/27 10:53:09;;;;;;;6.83;3.97;;;;;;;;;;4917002;28;20447;-52
2022/07/27 10:55:35;;;;;;;5.63;4.47;;;;;;;;;;4951494;28;20466;-53
2022/07/27 10:58:10;;;;;;;4.90;4.37;;;;;;;;;;4926673;28;20431;-52
2022/07/27 11:00:48;;;;;;;4.93;4.43;;;;;;;;;;4946147;28;21051;-51
2022/07/27 11:03:36;;;;;;;6.73;4.50;;;;;;;;;;4898889;28;20446;-52
2022/07/27 11:06:11;;;;;;;4.70;3.60;;;;;;;;;;4946134;28;20474;-52
2022/07/27 11:08:44;;;;;;;4.53;4.07;;;;;;;;;;4938352;28;20439;-51
2022/07/27 11:11:19;;;;;;;4.93;4.40;;;;;;;;;;4945591;28;20442;-52
2022/07/27 11:13:55;;;;;;;3.80;3.50;;;;;;;;;;4929414;28;21313;-51
2022/07/27 11:16:24;;;;;;;7.10;4.30;;;;;;;;;;4960887;28;20999;-51
2022/07/27 11:18:54;;;;;;;4.57;3.73;;;;;;;;;;4917091;28;20509;-52
2022/07/27 11:21:34;;;;;;;4.80;4.20;;;;;;;;;;4943459;28;20458;-52
2022/07/27 11:24:08;;;;;;;5.23;4.73;;;;;;;;;;4932775;28;20454;-51
2022/07/27 11:26:39;;;;;;;3.87;3.53;;;;;;;;;;4935726;28;20517;-52
2022/07/27 11:29:09;;;;;;;4.33;3.93;;;;;;;;;;4920125;28;20443;-52
2022/07/27 11:31:36;;;;;;;5.07;4.13;;;;;;;;;;4925903;28;20435;-52
2022/07/27 11:34:03;;;;;;;3.73;3.43;;;;;;;;;;4914199;28;21209;-51
2022/07/27 11:36:36;;;;;;;3.30;3.00;;;;;;;;;;4950190;28;20548;-50
2022/07/27 11:39:02;;;;;;;3.90;3.43;;;;;;;;;;4916545;28;20470;-52
2022/07/27 11:41:43;;;;;;;3.87;3.27;;;;;;;;;;4936517;28;20431;-52
2022/07/27 11:44:13;;;;;;;3.90;3.50;;;;;;;;;;4930954;28;20470;-51
2022/07/27 11:46:43;;;;;;;4.63;3.30;;;;;;;;;;4943662;28;20497;-51
2022/07/27 11:49:13;;;;;;;3.20;2.70;;;;;;;;;;4913329;28;20505;-51
2022/07/27 11:51:43;;;;;;;3.30;3.00;;;;;;;;;;4944470;28;20451;-52
2022/07/27 11:54:13;;;;;;;3.77;3.20;;;;;;;;;;4923211;28;20447;-53
2022/07/27 11:56:43;;;;;;;3.27;2.90;;;;;;;;;;4943270;28;20430;-51
2022/07/27 11:59:10;;;;;;;6.80;3.47;;;;;;;;;;4908912;28;20561;-51
2022/07/27 12:01:38;;;;;;;3.80;2.73;;;;;;;;;;4942417;28;20465;-52
2022/07/27 12:04:26;;;;;;;5.40;3.60;;;;;;;;;;4943291;28;20435;-52
2022/07/27 12:06:57;;;;;;;3.10;2.83;;;;;;;;;;4944424;28;20454;-52
2022/07/27 12:09:23;;;;;;;3.30;3.00;;;;;;;;;;4907723;28;20442;-53
2022/07/27 12:11:57;;;;;;;5.27;4.73;;;;;;;;;;4935622;28;20463;-50
2022/07/27 12:14:37;;;;;;;4.80;2.90;;;;;;;;;;4924072;28;20449;-51
2022/07/27 12:17:13;;;;;;;3.20;2.90;;;;;;;;;;4926011;28;21732;-51
2022/07/27 12:19:39;;;;;;;5.23;2.77;;;;;;;;;;4937052;28;20455;-52
2022/07/27 12:22:05;;;;;;;4.30;3.00;;;;;;;;;;4947969;28;20443;-56
2022/07/27 12:24:38;;;;;;;3.63;2.93;;;;;;;;;;4932621;28;20517;-50
2022/07/27 12:27:14;;;;;;;3.27;2.97;;;;;;;;;;4950376;28;20532;-52
2022/07/27 12:29:59;;;;;;;2.53;2.33;;;;;;;;;;4923011;28;20545;-53
2022/07/27 12:32:25;;;;;;;3.43;3.13;;;;;;;;;;4929618;28;20514;-51
2022/07/27 12:34:53;;;;;;;3.30;2.80;;;;;;;;;;4917857;28;20465;-52
2022/07/27 12:37:20;;;;;;;2.27;2.07;;;;;;;;;;4953014;28;20477;-53
2022/07/27 12:39:47;;;;;;;3.00;2.80;;;;;;;;;;4909730;28;20443;-50
2022/07/27 12:42:13;;;;;;;4.23;2.60;;;;;;;;;;4933079;28;20466;-52
2022/07/27 12:44:43;;;;;;;3.13;2.87;;;;;;;;;;4946128;28;20493;-54
2022/07/27 12:50:04;;;;;;;2.60;2.40;;;;;;;;;;4945838;28;21419;-53
2022/07/27 12:52:31;;;;;;;2.90;2.60;;;;;;;;;;4944979;28;20482;-51
2022/07/27 12:54:57;;;;;;;3.20;2.90;;;;;;;;;;4926328;28;20492;-52
2022/07/27 12:57:29;;;;;;;4.13;2.67;;;;;;;;;;4939623;28;20863;-52
2022/07/27 12:59:57;;;;;;;3.10;2.53;;;;;;;;;;4939444;28;20526;-52
2022/07/27 13:02:23;;;;;;;3.00;2.53;;;;;;;;;;4927754;28;21218;-52
2022/07/27 13:04:50;;;;;;;2.60;2.40;;;;;;;;;;4931317;28;20510;-52
2022/07/27 13:07:17;;;;;;;2.63;2.43;;;;;;;;;;4928440;28;20467;-52
2022/07/27 13:10:10;;;;;;;2.20;2.00;;;;;;;;;;4944501;28;20820;-54
2022/07/27 13:12:40;;;;;;;5.60;2.63;;;;;;;;;;4918148;28;20443;-52
2022/07/27 13:15:20;;;;;;;3.70;2.27;;;;;;;;;;4924277;28;20446;-55
2022/07/27 13:17:46;;;;;;;3.77;2.13;;;;;;;;;;4938419;28;20830;-53
2022/07/27 13:20:12;;;;;;;4.17;3.27;;;;;;;;;;4938999;28;20485;-54
2022/07/27 13:22:39;;;;;;;3.13;2.40;;;;;;;;;;4946499;28;20445;-52
2022/07/27 13:25:06;;;;;;;3.10;2.60;;;;;;;;;;4943345;28;20512;-52
2022/07/27 13:27:32;;;;;;;2.93;2.63;;;;;;;;;;4940717;28;20445;-52
2022/07/27 13:30:01;;;;;;;3.30;2.70;;;;;;;;;;4928873;28;20438;-52
2022/07/27 13:32:27;;;;;;;4.10;3.27;;;;;;;;;;4931709;28;20439;-52
2022/07/27 13:34:54;;;;;;;2.73;2.53;;;;;;;;;;4920017;28;20454;-51
2022/07/27 13:37:20;;;;;;;3.73;3.43;;;;;;;;;;4934439;28;20458;-51
2022/07/27 13:39:56;;;;;;;3.70;2.50;;;;;;;;;;4939199;28;21387;-53
2022/07/27 13:42:25;;;;;;;3.30;3.00;;;;;;;;;;4907716;28;20203;-53
2022/07/27 13:44:59;;;;;;;3.00;2.70;;;;;;;;;;4943694;28;20474;-53
2022/07/27 13:47:29;;;;;;;3.70;2.60;;;;;;;;;;4923697;28;20545;-52
2022/07/27 13:50:24;;;;;;;4.10;2.40;;;;;;;;;;4949303;28;21035;-52
2022/07/27 13:52:57;;;;;;;5.93;2.67;;;;;;;;;;4947970;28;20435;-52
2022/07/27 13:55:23;;;;;;;3.20;2.47;;;;;;;;;;4923825;28;20498;-53
2022/07/27 13:57:49;;;;;;;3.90;2.50;;;;;;;;;;4947619;28;20475;-53
2022/07/27 14:00:15;;;;;;;2.77;2.57;;;;;;;;;;4908699;28;20218;-52
2022/07/27 14:02:57;;;;;;;3.40;2.60;;;;;;;;;;4944260;28;20537;-53
2022/07/27 14:05:26;;;;;;;3.17;2.53;;;;;;;;;;4940315;28;20474;-52
2022/07/27 14:07:52;;;;;;;3.10;2.80;;;;;;;;;;4942316;28;20575;-51
2022/07/27 14:10:38;;;;;;;4.43;2.40;;;;;;;;;;4923995;28;21653;-52
2022/07/27 14:13:05;;;;;;;2.90;2.70;;;;;;;;;;4959450;28;20206;-51
2022/07/27 14:15:32;;;;;;;2.93;2.63;;;;;;;;;;4912255;28;20447;-52
2022/07/27 14:17:58;;;;;;;5.07;3.00;;;;;;;;;;4942078;28;20505;-52
2022/07/27 14:20:24;;;;;;;3.67;2.40;;;;;;;;;;4913922;28;20199;-53
2022/07/27 14:22:50;;;;;;;3.47;3.03;;;;;;;;;;4941698;28;20444;-54
2022/07/27 14:25:16;;;;;;;5.13;2.93;;;;;;;;;;4924116;28;20505;-56
2022/07/27 14:27:42;;;;;;;4.87;2.40;;;;;;;;;;4953896;28;20482;-53
2022/07/27 14:30:09;;;;;;;5.30;2.70;;;;;;;;;;4944767;28;20196;-53
2022/07/27 14:32:36;;;;;;;3.47;2.60;;;;;;;;;;4947686;28;20438;-54
2022/07/27 14:35:03;;;;;;;5.80;2.97;;;;;;;;;;4958960;28;20465;-52
2022/07/27 14:37:29;;;;;;;2.83;2.40;;;;;;;;;;4949200;28;20634;-53
2022/07/27 14:39:55;;;;;;;4.10;2.90;;;;;;;;;;4928390;28;21034;-53
2022/07/27 14:42:23;;;;;;;3.50;3.20;;;;;;;;;;4946046;28;20313;-53
2022/07/27 14:44:50;;;;;;;2.87;2.60;;;;;;;;;;4944136;28;21215;-52
2022/07/27 14:47:16;;;;;;;3.20;2.70;;;;;;;;;;4946166;28;20814;-53
2022/07/27 14:52:45;;;;;;;4.10;2.93;;;;;;;;;;4929276;28;20803;-52
2022/07/27 14:55:12;;;;;;;3.40;2.33;;;;;;;;;;4949016;28;20940;-52
2022/07/27 14:57:38;;;;;;;4.20;3.27;;;;;;;;;;4950871;28;20423;-53
2022/07/27 15:00:13;;;;;;;3.43;3.10;;;;;;;;;;4919785;28;20972;-54
2022/07/27 15:02:41;;;;;;;4.93;3.20;;;;;;;;;;4948797;28;20442;-51
2022/07/27 15:05:07;;;;;;;3.37;2.60;;;;;;;;;;4941472;28;20533;-52
2022/07/27 15:07:33;;;;;;;2.87;2.67;;;;;;;;;;4955560;28;20420;-53
2022/07/27 15:09:59;;;;;;;4.07;2.93;;;;;;;;;;4947170;28;20471;-52
2022/07/27 15:12:25;;;;;;;4.47;2.23;;;;;;;;;;4945078;28;20469;-55